createdAt,value
2018-09-24T00:01:22.752Z,96295.06
2018-09-24T00:03:52.666Z,96305.19
2018-09-24T00:06:22.281Z,96317.59
2018-09-24T00:08:51.913Z,96321.38
2018-09-24T00:11:21.609Z,96333.73
2018-09-24T00:13:52.289Z,96339.50
2018-09-24T00:16:22.561Z,96347.63
2018-09-24T00:18:52.576Z,96354.29
2018-09-24T00:21:25.870Z,96359.70
2018-09-24T00:23:55.489Z,96364.86
2018-09-24T00:26:25.813Z,96373.45
2018-09-24T00:28:55.537Z,96376.23
2018-09-24T00:31:25.177Z,96386.16
2018-09-24T00:33:55.299Z,96383.35
2018-09-24T00:36:27.977Z,96387.41
2018-09-24T00:38:57.643Z,96395.83
2018-09-24T00:41:27.723Z,96390.02
2018-09-24T00:43:57.353Z,96391.77
2018-09-24T00:46:26.991Z,96392.95
2018-09-24T00:48:57.042Z,96394.41
2018-09-24T00:51:26.651Z,96404.48
2018-09-24T00:53:56.289Z,96418.89
2018-09-24T00:56:25.925Z,96418.17
2018-09-24T00:58:55.520Z,96423.09
2018-09-24T01:01:25.320Z,96429.23
2018-09-24T01:03:55.285Z,96424.96
2018-09-24T01:06:24.929Z,96435.48
2018-09-24T01:08:54.569Z,96434.34
2018-09-24T01:11:24.238Z,96438.56
2018-09-24T01:13:54.205Z,96436.74
2018-09-24T01:16:23.861Z,96446.31
2018-09-24T01:18:53.454Z,96456.02
2018-09-24T01:21:23.120Z,96454.98
2018-09-24T01:23:52.774Z,96458.45
2018-09-24T01:26:22.424Z,96462.39
2018-09-24T01:28:52.418Z,96467.36
2018-09-24T01:31:22.062Z,96475.70
2018-09-24T01:33:51.701Z,96469.52
2018-09-24T01:36:21.314Z,96478.58
2018-09-24T01:38:51.013Z,96480.56
2018-09-24T01:41:21.052Z,96489.13
2018-09-24T01:43:51.084Z,96497.34
2018-09-24T01:46:20.718Z,96495.42
2018-09-24T01:48:50.380Z,96499.70
2018-09-24T01:51:20.401Z,96507.30
2018-09-24T01:53:50.029Z,96503.66
2018-09-24T01:56:19.653Z,96513.08
2018-09-24T01:58:49.285Z,96513.54
2018-09-24T02:01:19.420Z,96516.79
2018-09-24T02:03:49.090Z,96519.91
2018-09-24T02:06:18.712Z,96520.37
2018-09-24T02:08:48.873Z,96522.18
2018-09-24T02:11:18.506Z,96529.00
2018-09-24T02:13:50.470Z,96534.78
2018-09-24T02:16:21.253Z,96535.01
2018-09-24T02:18:51.387Z,96541.27
2018-09-24T02:21:21.022Z,96544.55
2018-09-24T02:23:51.002Z,96539.66
2018-09-24T02:26:20.685Z,96551.44
2018-09-24T02:28:50.377Z,96552.90
2018-09-24T02:31:20.444Z,96555.91
2018-09-24T02:33:50.094Z,96560.02
2018-09-24T02:36:19.732Z,96566.97
2018-09-24T02:38:49.381Z,96569.08
2018-09-24T02:41:19.018Z,96557.88
2018-09-24T02:43:48.676Z,96573.37
2018-09-24T02:46:18.601Z,96570.08
2018-09-24T02:48:48.277Z,96580.27
2018-09-24T02:51:17.942Z,96578.58
2018-09-24T02:53:47.599Z,96586.05
2018-09-24T02:56:18.943Z,96585.75
2018-09-24T02:58:48.609Z,96588.00
2018-09-24T03:01:19.098Z,96591.47
2018-09-24T03:03:48.810Z,96598.86
2018-09-24T03:06:22.559Z,96603.30
2018-09-24T03:08:52.241Z,96612.09
2018-09-24T03:11:22.557Z,96613.66
2018-09-24T03:13:52.424Z,96612.61
2018-09-24T03:16:22.131Z,96614.35
2018-09-24T03:18:58.871Z,96619.78
2018-09-24T03:21:32.177Z,96623.19
2018-09-24T03:24:01.990Z,96619.02
2018-09-24T03:26:31.625Z,96630.58
2018-09-24T03:29:01.596Z,96632.69
2018-09-24T03:31:36.113Z,96647.48
2018-09-24T03:34:06.568Z,96639.82
2018-09-24T03:36:36.391Z,96644.97
2018-09-24T03:39:07.976Z,96650.73
2018-09-24T03:41:38.533Z,96644.70
2018-09-24T03:44:09.148Z,96650.91
2018-09-24T03:46:39.702Z,96654.31
2018-09-24T03:49:09.632Z,96654.80
2018-09-24T03:51:39.350Z,96658.05
2018-09-24T03:54:11.261Z,96658.52
2018-09-24T03:56:44.882Z,96656.01
2018-09-24T03:59:14.537Z,96654.83
2018-09-24T04:01:45.253Z,96668.60
2018-09-24T04:04:20.777Z,96661.73
2018-09-24T04:06:55.614Z,96663.20
2018-09-24T04:09:30.190Z,96656.03
2018-09-24T04:12:05.813Z,96658.00
2018-09-24T04:14:40.717Z,96670.45
2018-09-24T04:17:15.185Z,96668.72
2018-09-24T04:19:50.178Z,96670.57
2018-09-24T04:22:24.744Z,96674.52
2018-09-24T04:24:59.753Z,96685.30
2018-09-24T04:27:35.274Z,96678.28
2018-09-24T04:30:10.223Z,96687.15
2018-09-24T04:32:44.665Z,96697.80
2018-09-24T04:35:19.148Z,96697.65
2018-09-24T04:37:55.697Z,96703.19
2018-09-24T04:40:30.178Z,96712.11
2018-09-24T04:43:05.389Z,96710.68
2018-09-24T04:45:39.902Z,96714.77
2018-09-24T04:48:16.000Z,96717.35
2018-09-24T04:50:50.531Z,96722.63
2018-09-24T04:53:24.978Z,96727.95
2018-09-24T04:55:59.936Z,96734.90
2018-09-24T04:58:36.143Z,96736.28
2018-09-24T05:01:10.736Z,96738.42
2018-09-24T05:03:45.350Z,96741.97
2018-09-24T05:06:20.526Z,96746.78
2018-09-24T05:08:55.158Z,96749.28
2018-09-24T05:11:30.085Z,96756.75
2018-09-24T05:14:05.210Z,96754.86
2018-09-24T05:16:39.840Z,96755.00
2018-09-24T05:19:14.857Z,96755.59
2018-09-24T05:21:49.454Z,96759.88
2018-09-24T05:24:24.065Z,96756.47
2018-09-24T05:26:58.631Z,96759.28
2018-09-24T05:29:33.770Z,96765.94
2018-09-24T05:32:08.344Z,96767.27
2018-09-24T05:34:43.994Z,96776.42
2018-09-24T05:37:20.534Z,96781.52
2018-09-24T05:39:55.455Z,96786.55
2018-09-24T05:42:30.535Z,96791.56
2018-09-24T05:45:05.500Z,96796.75
2018-09-24T05:47:40.081Z,96791.34
2018-09-24T05:50:18.516Z,96792.98
2018-09-24T05:52:53.714Z,96800.14
2018-09-24T05:55:28.375Z,96811.09
2018-09-24T05:58:02.825Z,96820.05
2018-09-24T06:00:37.557Z,96814.99
2018-09-24T06:03:11.996Z,96831.20
2018-09-24T06:05:46.530Z,96824.33
2018-09-24T06:08:21.982Z,96842.88
2018-09-24T06:10:57.302Z,96844.52
2018-09-24T06:13:32.677Z,96849.75
2018-09-24T06:16:07.126Z,96848.20
2018-09-24T06:18:42.370Z,96854.34
2018-09-24T06:21:17.286Z,96854.94
2018-09-24T06:23:51.819Z,96864.61
2018-09-24T06:26:27.178Z,96864.00
2018-09-24T06:29:02.145Z,96869.11
2018-09-24T06:31:37.393Z,96876.66
2018-09-24T06:34:12.649Z,96873.62
2018-09-24T06:36:48.766Z,96883.02
2018-09-24T06:39:24.584Z,96883.75
2018-09-24T06:42:00.149Z,96884.05
2018-09-24T06:44:35.376Z,96889.08
2018-09-24T06:47:11.630Z,96889.75
2018-09-24T06:49:47.253Z,96899.07
2018-09-24T06:52:23.250Z,96896.92
2018-09-24T06:54:58.268Z,96899.59
2018-09-24T06:57:32.776Z,96905.95
2018-09-24T07:00:07.668Z,96916.30
2018-09-24T07:02:43.181Z,96924.72
2018-09-24T07:05:18.088Z,96938.63
2018-09-24T07:07:52.708Z,96938.03
2018-09-24T07:10:27.200Z,96942.92
2018-09-24T07:13:02.019Z,96941.89
2018-09-24T07:15:36.588Z,96958.59
2018-09-24T07:18:14.048Z,96957.05
2018-09-24T07:20:49.210Z,96957.22
2018-09-24T07:23:24.682Z,96965.48
2018-09-24T07:26:00.217Z,96959.63
2018-09-24T07:31:16.302Z,96972.16
2018-09-24T07:33:51.429Z,96979.48
2018-09-24T07:36:26.470Z,96980.38
2018-09-24T07:39:03.029Z,96988.36
2018-09-24T07:41:38.547Z,96983.69
2018-09-24T07:44:13.230Z,96985.23
2018-09-24T07:46:48.873Z,96988.20
2018-09-24T07:49:30.949Z,96994.34
2018-09-24T07:52:07.062Z,96996.66
2018-09-24T07:54:41.969Z,96998.20
2018-09-24T07:57:17.353Z,97016.46
2018-09-24T07:59:51.984Z,97013.66
2018-09-24T08:02:35.821Z,97026.21
2018-09-24T08:05:19.462Z,97035.11
2018-09-24T08:08:04.999Z,97040.95
2018-09-24T08:10:47.285Z,97043.91
2018-09-24T08:13:21.933Z,97041.17
2018-09-24T08:15:59.202Z,97043.11
2018-09-24T08:18:34.234Z,97052.39
2018-09-24T08:21:09.947Z,97048.69
2018-09-24T08:23:44.557Z,97050.66
2018-09-24T08:26:19.566Z,97053.21
2018-09-24T08:28:54.209Z,97063.34
2018-09-24T08:31:29.630Z,97060.47
2018-09-24T08:34:04.641Z,97073.02
2018-09-24T08:36:39.290Z,97083.99
2018-09-24T08:39:15.206Z,97090.36
2018-09-24T08:41:49.909Z,97088.20
2018-09-24T08:44:26.137Z,97090.52
2018-09-24T08:47:03.394Z,97085.31
2018-09-24T08:49:38.968Z,97086.52
2018-09-24T08:52:14.102Z,97095.34
2018-09-24T08:54:49.655Z,97096.80
2018-09-24T08:57:24.862Z,97092.22
2018-09-24T09:00:01.917Z,97090.81
2018-09-24T09:02:37.604Z,97087.33
2018-09-24T09:05:12.209Z,97086.33
2018-09-24T09:07:47.390Z,97084.55
2018-09-24T09:10:21.862Z,97084.92
2018-09-24T09:12:56.924Z,97095.74
2018-09-24T09:15:42.678Z,97090.34
2018-09-24T09:18:18.762Z,97100.34
2018-09-24T09:20:53.336Z,97104.94
2018-09-24T09:23:28.429Z,97106.89
2018-09-24T09:26:04.622Z,97095.84
2018-09-24T09:28:40.858Z,97095.86
2018-09-24T09:31:15.422Z,97097.45
2018-09-24T09:33:50.342Z,97090.62
2018-09-24T09:36:26.239Z,97093.96
2018-09-24T09:39:00.850Z,97109.20
2018-09-24T09:41:35.488Z,97115.75
2018-09-24T09:44:10.711Z,97122.88
2018-09-24T09:46:45.743Z,97133.86
2018-09-24T09:49:21.177Z,97138.08
2018-09-24T09:51:57.259Z,97139.69
2018-09-24T09:54:31.931Z,97141.70
2018-09-24T09:57:06.928Z,97138.08
2018-09-24T09:59:41.425Z,97140.17
2018-09-24T10:02:15.901Z,97135.33
2018-09-24T10:04:50.609Z,97136.92
2018-09-24T10:07:25.540Z,97133.39
2018-09-24T10:10:01.320Z,97138.73
2018-09-24T10:12:36.730Z,97128.38
2018-09-24T10:15:11.445Z,97135.58
2018-09-24T10:17:47.822Z,97137.46
2018-09-24T10:20:22.349Z,97127.53
2018-09-24T10:22:57.556Z,97119.47
2018-09-24T10:25:33.400Z,97138.24
2018-09-24T10:28:08.114Z,97141.43
2018-09-24T10:30:43.184Z,97157.28
2018-09-24T10:33:18.279Z,97146.54
2018-09-24T10:35:54.879Z,97149.52
2018-09-24T10:38:30.416Z,97152.83
2018-09-24T10:41:05.354Z,97167.72
2018-09-24T10:43:40.816Z,97155.79
2018-09-24T10:46:15.835Z,97160.20
2018-09-24T10:48:50.702Z,97163.56
2018-09-24T10:51:28.376Z,97180.85
2018-09-24T10:54:03.486Z,97190.31
2018-09-24T10:56:39.437Z,97183.56
2018-09-24T10:59:15.991Z,97185.53
2018-09-24T11:01:52.245Z,97187.34
2018-09-24T11:04:26.879Z,97191.84
2018-09-24T11:07:01.865Z,97187.81
2018-09-24T11:09:37.478Z,97186.14
2018-09-24T11:12:12.525Z,97188.41
2018-09-24T11:14:48.718Z,97183.98
2018-09-24T11:17:24.209Z,97174.98
2018-09-24T11:19:58.847Z,97178.61
2018-09-24T11:22:35.090Z,97178.48
2018-09-24T11:25:10.273Z,97181.62
2018-09-24T11:27:44.959Z,97183.50
2018-09-24T11:30:20.681Z,97184.75
2018-09-24T11:32:55.446Z,97200.09
2018-09-24T11:35:29.945Z,97194.33
2018-09-24T11:38:05.388Z,97197.92
2018-09-24T11:40:40.465Z,97186.92
2018-09-24T11:43:14.889Z,97195.45
2018-09-24T11:45:49.699Z,97189.36
2018-09-24T11:48:24.398Z,97197.42
2018-09-24T11:50:59.502Z,97189.09
2018-09-24T11:53:34.197Z,97193.52
2018-09-24T11:56:08.750Z,97201.33
2018-09-24T11:58:43.726Z,97196.30
2018-09-24T12:01:19.406Z,97193.61
2018-09-24T12:03:55.618Z,97192.77
2018-09-24T12:06:30.842Z,97182.72
2018-09-24T12:09:07.427Z,97171.55
2018-09-24T12:11:42.236Z,97187.30
2018-09-24T12:14:17.733Z,97174.25
2018-09-24T12:16:52.421Z,97165.08
2018-09-24T12:19:27.399Z,97167.48
2018-09-24T12:22:02.436Z,97171.53
2018-09-24T12:24:38.763Z,97174.13
2018-09-24T12:27:13.430Z,97185.75
2018-09-24T12:29:48.617Z,97177.72
2018-09-24T12:32:24.364Z,97199.52
2018-09-24T12:35:00.385Z,97194.72
2018-09-24T12:37:35.805Z,97196.27
2018-09-24T12:40:13.216Z,97192.12
2018-09-24T12:42:49.208Z,97194.55
2018-09-24T12:45:24.628Z,97203.98
2018-09-24T12:47:59.312Z,97207.55
2018-09-24T12:50:36.731Z,97210.48
2018-09-24T12:53:13.401Z,97212.34
2018-09-24T12:55:49.502Z,97205.51
2018-09-24T12:58:25.191Z,97211.20
2018-09-24T13:01:09.612Z,97212.25
2018-09-24T13:03:54.393Z,97204.17
2018-09-24T13:06:29.345Z,97214.20
2018-09-24T13:09:05.568Z,97209.75
2018-09-24T13:11:44.005Z,97210.42
2018-09-24T13:14:20.868Z,97218.74
2018-09-24T13:16:56.601Z,97230.42
2018-09-24T13:19:35.277Z,97234.23
2018-09-24T13:22:12.215Z,97239.20
2018-09-24T13:24:50.043Z,97237.20
2018-09-24T13:27:26.810Z,97225.47
2018-09-24T13:30:02.324Z,97234.16
2018-09-24T13:32:38.902Z,97229.63
2018-09-24T13:35:15.638Z,97230.73
2018-09-24T13:37:52.989Z,97242.91
2018-09-24T13:40:28.511Z,97231.86
2018-09-24T13:43:03.122Z,97229.81
2018-09-24T13:45:37.695Z,97230.38
2018-09-24T13:48:12.846Z,97220.73
2018-09-24T13:50:51.454Z,97219.44
2018-09-24T13:53:26.665Z,97221.70
2018-09-24T13:56:02.246Z,97224.93
2018-09-24T13:58:37.824Z,97220.63
2018-09-24T14:01:14.365Z,97216.31
2018-09-24T14:03:49.989Z,97220.69
2018-09-24T14:06:24.809Z,97219.80
2018-09-24T14:09:03.133Z,97223.37
2018-09-24T14:11:38.262Z,97220.73
2018-09-24T14:14:13.702Z,97207.63
2018-09-24T14:16:52.566Z,97213.64
2018-09-24T14:19:27.384Z,97201.80
2018-09-24T14:22:02.550Z,97207.42
2018-09-24T14:24:37.268Z,97213.91
2018-09-24T14:27:12.210Z,97203.63
2018-09-24T14:29:46.639Z,97198.52
2018-09-24T14:32:21.961Z,97197.98
2018-09-24T14:34:57.458Z,97190.67
2018-09-24T14:37:32.992Z,97197.13
2018-09-24T14:40:11.183Z,97194.98
2018-09-24T14:42:47.450Z,97196.37
2018-09-24T14:45:22.288Z,97205.09
2018-09-24T14:47:58.661Z,97232.29
2018-09-24T14:50:35.774Z,97247.63
2018-09-24T14:53:12.115Z,97235.08
2018-09-24T14:55:47.837Z,97248.66
2018-09-24T14:58:23.489Z,97261.09
2018-09-24T15:00:58.375Z,97276.52
2018-09-24T15:03:37.332Z,97279.59
2018-09-24T15:06:13.152Z,97246.41
2018-09-24T15:08:48.953Z,97257.19
2018-09-24T15:11:24.259Z,97263.22
2018-09-24T15:13:58.985Z,97273.20
2018-09-24T15:16:34.212Z,97278.81
2018-09-24T15:19:10.249Z,97308.80
2018-09-24T15:21:46.618Z,97312.30
2018-09-24T15:24:24.566Z,97312.30
2018-09-24T15:27:01.693Z,97320.48
2018-09-24T15:29:38.856Z,97321.88
2018-09-24T15:32:15.604Z,97327.59
2018-09-24T15:34:50.557Z,97321.00
2018-09-24T15:37:25.321Z,97312.25
2018-09-24T15:40:00.740Z,97313.34
2018-09-24T15:42:38.894Z,97308.92
2018-09-24T15:45:14.258Z,97300.02
2018-09-24T15:47:51.113Z,97286.50
2018-09-24T15:50:26.499Z,97290.35
2018-09-24T15:53:02.157Z,97294.92
2018-09-24T15:55:36.837Z,97293.89
2018-09-24T15:58:12.966Z,97293.08
2018-09-24T16:00:48.634Z,97293.53
2018-09-24T16:03:24.382Z,97296.63
2018-09-24T16:05:59.995Z,97291.69
2018-09-24T16:08:36.842Z,97288.72
2018-09-24T16:11:15.426Z,97280.87
2018-09-24T16:13:53.407Z,97288.66
2018-09-24T16:16:29.676Z,97276.14
2018-09-24T16:19:04.655Z,97280.66
2018-09-24T16:21:41.353Z,97286.87
2018-09-24T16:24:18.090Z,97287.08
2018-09-24T16:26:59.237Z,97290.47
2018-09-24T16:29:36.063Z,97297.51
2018-09-24T16:32:13.429Z,97305.96
2018-09-24T16:34:49.225Z,97312.11
2018-09-24T16:37:24.553Z,97329.44
2018-09-24T16:40:01.298Z,97338.70
2018-09-24T16:42:40.195Z,97349.00
2018-09-24T16:45:20.483Z,97356.30
2018-09-24T16:48:02.462Z,97371.00
2018-09-24T16:50:48.717Z,97376.75
2018-09-24T16:53:38.672Z,97372.29
2018-09-24T16:56:16.688Z,97363.63
2018-09-24T16:58:58.362Z,97358.09
2018-09-24T17:01:33.493Z,97362.30
2018-09-24T17:04:10.097Z,97354.75
2018-09-24T17:06:48.418Z,97356.39
2018-09-24T17:10:26.476Z,97350.05
2018-09-24T17:13:00.942Z,97355.41
2018-09-24T17:15:36.741Z,97347.48
2018-09-24T17:18:13.508Z,97352.60
2018-09-24T17:20:48.582Z,97349.73
2018-09-24T17:23:26.844Z,97351.78
2018-09-24T17:26:03.961Z,97360.48
2018-09-24T17:28:40.801Z,97360.70
2018-09-24T17:31:17.193Z,97369.50
2018-09-24T17:33:56.566Z,97370.53
2018-09-24T17:36:32.683Z,97380.67
2018-09-24T17:39:07.432Z,97378.34
2018-09-24T17:41:44.706Z,97389.98
2018-09-24T17:44:19.381Z,97389.48
2018-09-24T17:46:55.626Z,97390.60
2018-09-24T17:49:31.165Z,97390.50
2018-09-24T17:52:07.696Z,97386.33
2018-09-24T17:54:42.516Z,97385.72
2018-09-24T17:57:19.625Z,97392.48
2018-09-24T17:59:56.849Z,97395.86
2018-09-24T18:02:35.305Z,97394.42
2018-09-24T18:05:10.440Z,97397.60
2018-09-24T18:07:46.398Z,97406.41
2018-09-24T18:10:21.431Z,97402.72
2018-09-24T18:12:58.949Z,97409.28
2018-09-24T18:15:34.676Z,97417.87
2018-09-24T18:18:09.698Z,97427.71
2018-09-24T18:20:45.133Z,97426.45
2018-09-24T18:23:20.496Z,97431.70
2018-09-24T18:25:55.512Z,97442.13
2018-09-24T18:28:32.450Z,97443.18
2018-09-24T18:31:08.481Z,97442.13
2018-09-24T18:33:44.697Z,97454.27
2018-09-24T18:36:19.607Z,97455.41
2018-09-24T18:38:55.518Z,97450.99
2018-09-24T18:41:30.849Z,97450.89
2018-09-24T18:44:08.157Z,97452.30
2018-09-24T18:46:44.457Z,97446.77
2018-09-24T18:49:20.438Z,97452.94
2018-09-24T18:51:55.412Z,97452.02
2018-09-24T18:54:31.478Z,97456.94
2018-09-24T18:57:09.205Z,97454.05
2018-09-24T18:59:45.298Z,97459.51
2018-09-24T19:02:22.024Z,97463.09
2018-09-24T19:04:57.443Z,97456.72
2018-09-24T19:07:32.263Z,97455.39
2018-09-24T19:10:07.944Z,97454.49
2018-09-24T19:12:45.752Z,97454.80
2018-09-24T19:15:22.425Z,97454.49
2018-09-24T19:17:58.291Z,97457.66
2018-09-24T19:20:33.702Z,97466.27
2018-09-24T19:23:09.574Z,97469.64
2018-09-24T19:25:47.388Z,97471.06
2018-09-24T19:28:23.738Z,97481.52
2018-09-24T19:31:03.507Z,97485.72
2018-09-24T19:33:41.000Z,97482.23
2018-09-24T19:36:17.419Z,97489.49
2018-09-24T19:38:54.681Z,97485.41
2018-09-24T19:41:30.120Z,97485.19
2018-09-24T19:44:06.639Z,97486.22
2018-09-24T19:46:47.049Z,97492.17
2018-09-24T19:49:24.876Z,97497.58
2018-09-24T19:52:00.372Z,97493.79
2018-09-24T19:54:36.781Z,97504.34
2018-09-24T19:57:15.541Z,97502.70
2018-09-24T19:59:50.802Z,97509.36
2018-09-24T20:02:28.865Z,97509.45
2018-09-24T20:05:07.296Z,97508.44
2018-09-24T20:07:41.712Z,97514.16
2018-09-24T20:10:20.269Z,97513.33
2018-09-24T20:12:55.973Z,97512.31
2018-09-24T20:15:30.677Z,97524.48
2018-09-24T20:18:05.818Z,97532.04
2018-09-24T20:20:46.437Z,97527.85
2018-09-24T20:23:26.062Z,97531.45
2018-09-24T20:26:01.673Z,97527.57
2018-09-24T20:28:36.767Z,97520.80
2018-09-24T20:31:14.293Z,97519.16
2018-09-24T20:33:53.117Z,97529.89
2018-09-24T20:36:28.681Z,97533.88
2018-09-24T20:39:03.438Z,97535.09
2018-09-24T20:41:39.102Z,97534.89
2018-09-24T20:44:18.364Z,97537.55
2018-09-24T20:46:54.645Z,97539.78
2018-09-24T20:49:29.862Z,97539.39
2018-09-24T20:52:05.458Z,97541.22
2018-09-24T20:54:41.219Z,97544.97
2018-09-24T20:57:16.414Z,97554.39
2018-09-24T20:59:52.304Z,97547.12
2018-09-24T21:02:28.896Z,97550.98
2018-09-24T21:05:04.765Z,97551.05
2018-09-24T21:07:39.318Z,97548.39
2018-09-24T21:10:14.405Z,97548.52
2018-09-24T21:12:53.721Z,97545.73
2018-09-24T21:15:31.026Z,97550.23
2018-09-24T21:18:05.536Z,97556.98
2018-09-24T21:20:41.813Z,97556.30
2018-09-24T21:23:17.424Z,97562.31
2018-09-24T21:25:52.489Z,97570.48
2018-09-24T21:28:27.875Z,97568.64
2018-09-24T21:31:03.408Z,97574.27
2018-09-24T21:33:39.420Z,97570.34
2018-09-24T21:36:15.432Z,97577.91
2018-09-24T21:38:49.938Z,97580.45
2018-09-24T21:41:26.506Z,97581.97
2018-09-24T21:44:01.066Z,97585.11
2018-09-24T21:46:39.991Z,97592.20
2018-09-24T21:49:14.633Z,97588.70
2018-09-24T21:51:53.445Z,97595.09
2018-09-24T21:54:29.304Z,97593.51
2018-09-24T21:57:03.735Z,97602.77
2018-09-24T21:59:38.620Z,97596.41
2018-09-24T22:02:14.116Z,97606.09
2018-09-24T22:04:49.061Z,97607.05
2018-09-24T22:07:23.773Z,97609.81
2018-09-24T22:09:58.304Z,97609.72
2018-09-24T22:12:34.612Z,97622.77
2018-09-24T22:15:10.513Z,97623.09
2018-09-24T22:17:45.077Z,97628.72
2018-09-24T22:20:20.277Z,97629.03
2018-09-24T22:22:56.313Z,97627.52
2018-09-24T22:25:31.240Z,97630.23
2018-09-24T22:28:05.794Z,97630.95
2018-09-24T22:30:40.421Z,97634.80
2018-09-24T22:33:16.454Z,97639.34
2018-09-24T22:35:52.403Z,97641.59
2018-09-24T22:38:28.201Z,97638.35
2018-09-24T22:41:02.757Z,97637.86
2018-09-24T22:43:39.267Z,97639.95
2018-09-24T22:46:15.174Z,97641.28
2018-09-24T22:48:49.685Z,97644.52
2018-09-24T22:51:24.302Z,97638.17
2018-09-24T22:53:58.962Z,97643.38
2018-09-24T22:56:33.875Z,97639.31
2018-09-24T22:59:08.405Z,97642.80
2018-09-24T23:01:42.976Z,97643.19
2018-09-24T23:04:19.093Z,97646.85
2018-09-24T23:06:53.629Z,97643.61
2018-09-24T23:09:29.569Z,97643.83
2018-09-24T23:12:04.412Z,97649.19
2018-09-24T23:14:39.250Z,97644.12
2018-09-24T23:17:15.135Z,97639.91
2018-09-24T23:19:49.959Z,97646.59
2018-09-24T23:22:25.078Z,97646.95
2018-09-24T23:24:59.850Z,97653.67
2018-09-24T23:27:34.495Z,97656.56
2018-09-24T23:30:09.122Z,97657.76
2018-09-24T23:32:44.814Z,97662.01
2018-09-24T23:35:19.495Z,97661.59
2018-09-24T23:37:54.066Z,97663.23
2018-09-24T23:40:29.386Z,97664.55
2018-09-24T23:43:03.797Z,97667.14
2018-09-24T23:45:38.249Z,97674.80
2018-09-24T23:48:12.826Z,97675.30
2018-09-24T23:50:47.851Z,97682.72
2018-09-24T23:53:22.447Z,97677.69
2018-09-24T23:55:57.932Z,97672.11
2018-09-24T23:58:32.414Z,97683.79
